Estações Meteorológicas Convencionais MB

Canivete
Data Hora VISIB (KM) Cobertura(OITAVOS) DD Vento(º) Intensidade (NÓS) TEMP DO AR (º) Temp do Ponto de Orvalho(ºC) Pressão (hPa) TEMP MAX (ºC) TEMP MIN (ºC)
15/04/2021 00:00 0,5/1 27.00 25.70 1004.50
14/04/2021 18:00 2/4 7 27.50 26.70 1004.30
14/04/2021 12:00 2/4 7 26.50 25.70 1007.50
14/04/2021 00:00 0/0,05 26.50 24.30 1007.50
13/04/2021 18:00 4/10 8 27.00 25.70 1006.40
13/04/2021 12:00 2/4 8 26.00 24.70 1008.60
13/04/2021 00:00 0/0,05 27.00 25.70 1006.40
12/04/2021 18:00 4/10 6 27.50 26.70 1004.30
12/04/2021 12:00 4/10 5 27.00 25.70 1007.50
12/04/2021 00:00 0,1 26.50 25.70 1006.40
11/04/2021 18:00 4/10 6 28.00 26.70 1004.30
11/04/2021 12:00 2/4 8 25.00 23.60 1007.90
11/04/2021 00:00 0,2/0,5 26.00 24.70 1005.50
10/04/2021 18:00 2/4 8 26.50 25.70 1004.50
10/04/2021 12:00 1/2 8 26.00 23.30 1007.70
10/04/2021 00:00 27.00 24.30 1006.40
09/04/2021 18:00 2/4 7 28.00 26.70 1004.40
09/04/2021 12:00 2/4 7 26.00 24.70 1007.70
09/04/2021 00:00 0/0,05 25.50 24.70 1006.60
08/04/2021 18:00 2/4 8 25.50 24.70
08/04/2021 12:00 1/2 8 25.00 23.60 1007.90
08/04/2021 00:00 0/0,05 26.00 24.70 1005.50
07/04/2021 18:00 1/2 8 26.50 24.30 1003.50
07/04/2021 12:00 2/4 7 27.00 25.70 1006.40
07/04/2021 00:00 0/0,05 27.50 25.30 1005.40
06/04/2021 18:00 2/4 7 29.00 27.70 1003.30
06/04/2021 12:00 4/10 6 27.60 25.30 1006.40
06/04/2021 06:00 20/50 3 27.40 24.30 1011.10
06/04/2021 00:00 0,2 25.50 24.70 1005.40
05/04/2021 18:00 2/4 6 30.50 24.30 1003.30
05/04/2021 12:00 4/10 5 28.00 25.30 1006.20
05/04/2021 00:00 0,2/0,5 26.00 24.70 1004.50
04/04/2021 18:00 2/4 7 29.00 26.40 1003.50
04/04/2021 12:00 0,5/1 8 25.00 23.60 1007.70
04/04/2021 00:00 25.50 24.70 1005.50
03/04/2021 18:00 4/10 7 29.00 25.00 1004.30
03/04/2021 12:00 4/10 6 27.00 25.70 1006.60
03/04/2021 00:00 0,05/0,2 25.50 24.70 1006.60
02/04/2021 18:00 2/4 7 27.50 25.30 1005.40
02/04/2021 12:00 2/4 7 26.00 24.70 1007.90
02/04/2021 00:00 0/0,05 25.00 23.60 1006.60 25.50
01/04/2021 18:00 1/2 7 27.00 24.30 1004.50
01/04/2021 00:00 0,2 25.00 23.60 1004.60
31/03/2021 18:00 2/4 7 27.50 25.30 1002.70
31/03/2021 12:00 2/4 8 25.50 24.70 1005.80
31/03/2021 00:00 24.50 23.60 1005.50
30/03/2021 18:00 1/2 8 25.50 24.70 1005.50
30/03/2021 12:00 2/4 8 26.00 24.70 1007.50
30/03/2021 00:00 20/50 26.00 24.70 1005.50
29/03/2021 18:00 2/4 7 29.00 26.40 1004.50
29/03/2021 12:00 2/4 8 26.00 24.70 1007.90 24.00
29/03/2021 00:00 0/0,05 24.50 23.60 1005.50
28/03/2021 18:00 2/4 8 25.50 24.70 1005.60
28/03/2021 12:00 4/10 5 26.50 24.70 1007.70
28/03/2021 00:00 0/0,05 25.00 23.60
27/03/2021 18:00 2/4 7 26.00 24.70 1005.50
27/03/2021 12:00 4/10 6 26.50 25.70 1007.70
27/03/2021 00:00 25.50 24.70 1007.50
26/03/2021 12:00 0,2 8 23.50 22.60 1009.10
26/03/2021 00:00 25.00 23.60 1008.10
25/03/2021 18:00 1/2 8 26.00 24.70 1007.00
25/03/2021 12:00 1/2 8 24.00 22.60 1009.10
25/03/2021 00:00 0,2/0,5 24.00 22.60 1008.20
24/03/2021 18:00 1/2 8 24.00 22.60 1008.20
24/03/2021 12:00 1/2 8 25.00 23.60 1008.20
24/03/2021 00:00 0/0,05 25.00 23.60 1004.90
23/03/2021 18:00 4/10 7 29.00 25.00 1003.90
23/03/2021 12:00 4/10 5 26.50 24.30 1008.20
23/03/2021 00:00 0/0,05 24.00 22.60 1006.20
22/03/2021 18:00 1/2 8 25.50 24.70 1005.00
22/03/2021 12:00 2/4 7 25.00 23.60 1009.00
22/03/2021 00:00 0,2 26.00 24.70 1007.70
21/03/2021 18:00 4/10 6 29.00 25.00 1004.50
21/03/2021 12:00 1/2 6 26.00 23.30 1008.10
21/03/2021 00:00 0,2/0,5 25.50 23.30 1005.50
20/03/2021 18:00 1/2 7 28.00 25.30 1004.90
20/03/2021 12:00 1/2 7 26.00 24.70 1008.10
20/03/2021 00:00 0,2 25.00 23.60 1005.90
19/03/2021 18:00 1/2 7 28.00 25.30 1005.50
19/03/2021 12:00 1/2 8 25.50 24.70 1007.90
19/03/2021 00:00 0/0,5 27.00 24.30 1005.40
18/03/2021 18:00 2/4 7 28.50 23.60 1004.60
18/03/2021 12:00 2/4 4 27.00 24.30 1005.80
18/03/2021 00:00 0,2 26.00 24.70 1005.50
17/03/2021 18:00 2/4 4 30.50 24.30 1003.50
17/03/2021 12:00 2/4 4 27.00 24.30 1007.90
17/03/2021 00:00 0/0,5 26.50 24.30 1006.40
16/03/2021 18:00 4/10 3 30.00 24.70 1004.50
16/03/2021 12:00 2/4 4 26.50 25.70 1007.70
16/03/2021 00:00 0,2/0,5 26.50 25.70 1006.60
15/03/2021 18:00 4/10 4 29.00 23.60 1005.20
15/03/2021 12:00 4/10 4 27.50 25.30 1008.60
15/03/2021 00:00 0,2 26.00 24.70 1007.70
14/03/2021 18:00 4/10 4 30.00 24.70 1006.60
14/03/2021 12:00 2/4 4 28.00 24.00 1009.00
14/03/2021 00:00 0/0,05 25.50 24.70 1005.90
13/03/2021 18:00 2/4 5 27.50 24.00 1005.80
13/03/2021 12:00 4/10 4 26.00 24.70 1008.10
12/03/2021 00:00 0/0,05 27.50 22.50 1007.00
12/03/2021 18:00 4/10 4 27.00 24.30 1005.90